Latest Weather Observations for Bickley

IDW60801

Issued at 9:32 pm WST Friday 31 July 2015 (issued every 30 minutes, with the page automatically refreshed every 10 minutes)

About weather observations | Map of weather stations | Latest weather observations for WA | Other Formats
Station Details ID: 009240 Name: BICKLEY Lat: -32.01 Lon: 116.14 Height: 384.0 m
Data from the previous 72 hours. | See also: Recent months at Bickley
Date/Time
WST
Temp
°C
App
Temp
°C
Dew
Point
Rel
Hum
%
Delta-T
°C
Wind Press
QNH
hPa
Press
MSL
hPa
Rain
since 9 am
mm
Dir
 
Spd
km/h
Gust
km/h
Spd
kts
Gust
kts
31/09:30pm 11.7 8.0 10.3 91 0.7 SE 20 35 11 19 - - 0.2
31/09:00pm 12.1 9.1 10.7 91 0.7 SSE 17 28 9 15 - - 0.2
31/08:30pm 12.8 10.7 11.2 90 0.9 S 13 22 7 12 - - 0.2
31/08:00pm 13.2 11.2 11.4 89 1.0 SSW 13 15 7 8 - - 0.2
31/07:30pm 13.4 11.4 11.5 88 1.0 SW 13 20 7 11 - - 0.2
31/07:00pm 13.6 12.0 11.7 88 1.0 SW 11 17 6 9 - - 0.2
31/06:30pm 13.7 12.1 11.7 88 1.1 SW 11 15 6 8 - - 0.2
31/06:00pm 14.2 13.6 12.4 89 1.0 SW 7 11 4 6 - - 0.2
31/05:30pm 14.9 15.9 13.1 89 1.0 CALM 0 0 0 0 - - 0.2
31/05:00pm 15.3 14.9 13.1 87 1.2 ENE 7 9 4 5 - - 0.2
31/04:30pm 16.1 15.4 13.2 83 1.6 ENE 9 11 5 6 - - 0.2
31/04:00pm 17.7 18.0 14.4 81 1.9 E 6 9 3 5 - - 0.2
31/03:30pm 17.1 17.7 13.0 77 2.3 SW 2 7 1 4 - - 0.2
31/03:00pm 17.4 17.8 13.7 79 2.1 W 4 7 2 4 - - 0.2
31/02:30pm 17.6 17.9 15.0 85 1.5 WSW 7 11 4 6 - - 0.2
31/02:00pm 17.6 18.3 16.1 91 0.9 WSW 7 15 4 8 - - 0.2
31/01:30pm 16.9 16.5 16.1 95 0.5 WSW 13 20 7 11 - - 0.2
31/01:00pm 16.4 16.3 15.9 97 0.3 W 11 17 6 9 - - 0.2
31/12:30pm 16.4 17.3 16.1 98 0.2 SW 6 7 3 4 - - 0.0
31/12:00pm 16.3 17.2 16.1 99 0.1 SSE 6 7 3 4 - - 0.0
31/11:30am 16.2 17.4 16.0 99 0.1 NW 4 7 2 4 - - 0.0
31/11:00am 16.1 16.9 15.9 99 0.1 NNW 6 7 3 4 - - 0.0
31/10:30am 15.2 16.1 15.0 99 0.1 N 4 7 2 4 - - 0.0
31/10:00am 15.2 15.1 15.0 99 0.1 N 9 15 5 8 - - 0.0
31/09:30am 14.8 15.1 14.6 99 0.1 N 6 11 3 6 - - 0.0
31/09:00am 14.7 14.1 14.5 99 0.1 NNW 11 22 6 12 - - 22.8
31/08:30am 14.6 13.2 14.4 99 0.1 NW 15 24 8 13 - - 22.8
31/08:00am 14.6 13.2 14.4 99 0.1 NW 15 24 8 13 - - 22.8
31/07:30am 14.6 12.8 14.4 99 0.1 NW 17 30 9 16 - - 22.8
31/07:00am 14.7 13.3 14.5 99 0.1 NW 15 24 8 13 - - 22.8
31/06:30am 14.8 13.8 14.6 99 0.1 NNW 13 26 7 14 - - 22.4
31/06:00am 14.6 12.2 14.4 99 0.1 N 20 41 11 22 - - 21.6
31/05:30am 14.4 12.1 14.2 99 0.1 NNE 19 35 10 19 - - 17.2
31/05:00am 14.3 12.0 14.1 99 0.1 NNE 19 35 10 19 - - 16.0
31/04:30am 14.2 11.9 14.0 99 0.1 NNE 19 33 10 18 - - 15.6
31/04:00am 14.1 11.7 13.9 99 0.1 NE 19 30 10 16 - - 15.2
31/03:30am 14.2 12.2 14.0 99 0.1 NNE 17 28 9 15 - - 14.6
31/03:00am 14.2 12.6 14.0 99 0.1 NNE 15 22 8 12 - - 14.4
31/02:30am 14.2 11.9 14.0 99 0.1 NNE 19 33 10 18 - - 14.4
31/02:00am 14.2 11.6 13.9 98 0.2 NNE 20 39 11 21 - - 14.4
31/01:30am 14.2 12.6 13.9 98 0.2 NNE 15 26 8 14 - - 14.4
31/01:00am 14.1 11.7 13.8 98 0.2 NNE 19 33 10 18 - - 14.4
31/12:30am 14.0 11.5 13.5 97 0.3 NNE 19 35 10 19 - - 14.2
31/12:00am 13.7 11.5 13.2 97 0.3 NNE 17 24 9 13 - - 14.0
 
Date/Time
WST
Temp
°C
App
Temp
°C
Dew
Point
Rel
Hum
%
Delta-T
°C
Wind Press
QNH
hPa
Press
MSL
hPa
Rain
since 9 am
mm
Dir
 
Spd
km/h
Gust
km/h
Spd
kts
Gust
kts
30/11:30pm 13.6 11.3 13.0 96 0.3 NE 17 26 9 14 - - 13.6
30/11:00pm 13.7 11.8 13.1 96 0.3 NNE 15 24 8 13 - - 12.8
30/10:30pm 13.8 11.9 13.0 95 0.4 NNE 15 26 8 14 - - 12.0
30/10:00pm 13.9 12.8 13.0 94 0.5 NNW 11 20 6 11 - - 9.2
30/09:30pm 13.8 9.8 12.9 94 0.5 NNW 26 43 14 23 - - 8.0
30/09:05pm 13.8 9.4 12.9 94 0.5 N 28 48 15 26 - - 7.2
30/09:00pm 13.8 10.1 12.7 93 0.6 N 24 48 13 26 - - 6.8
30/08:30pm 14.2 9.1 13.1 93 0.6 N 32 50 17 27 - - 4.8
30/08:00pm 14.4 9.2 13.3 93 0.6 N 33 57 18 31 - - 4.0
30/07:30pm 14.6 9.9 13.3 92 0.7 N 30 63 16 34 - - 2.4
30/07:24pm 14.7 10.1 13.4 92 0.7 N 30 63 16 34 - - 2.4
30/07:00pm 15.2 10.0 13.4 89 1.0 NNW 33 57 18 31 - - 2.0
30/06:32pm 15.6 11.5 13.8 89 1.0 NNW 28 52 15 28 - - 1.8
30/06:30pm 15.6 11.9 13.8 89 1.0 NNW 26 52 14 28 - - 1.8
30/06:00pm 15.3 13.3 13.8 91 0.9 N 17 33 9 18 - - 1.8
30/05:30pm 15.2 12.8 13.7 91 0.9 N 19 39 10 21 - - 1.8
30/05:00pm 15.5 14.1 14.4 93 0.6 N 15 26 8 14 - - 1.8
30/04:30pm 15.4 14.7 14.4 94 0.6 N 11 20 6 11 - - 1.8
30/04:00pm 15.6 14.2 14.6 94 0.6 N 15 26 8 14 - - 1.8
30/03:30pm 15.8 15.0 15.2 96 0.4 NNW 13 24 7 13 - - 1.8
30/03:00pm 16.2 16.0 15.7 97 0.3 N 11 17 6 9 - - 1.8
30/02:30pm 16.2 15.7 15.9 98 0.2 N 13 24 7 13 - - 1.8
30/02:00pm 16.2 16.1 16.0 99 0.1 N 11 17 6 9 - - 1.8
30/01:30pm 15.7 14.3 15.5 99 0.1 N 17 30 9 16 - - 1.8
30/01:00pm 16.1 15.6 15.9 99 0.1 NNE 13 28 7 15 - - 1.8
30/12:30pm 16.2 16.1 16.0 99 0.1 NE 11 20 6 11 - - 1.8
30/12:00pm 15.9 15.7 15.7 99 0.1 NNE 11 20 6 11 - - 1.4
30/11:30am 15.9 15.7 15.7 99 0.1 NE 11 17 6 9 - - 1.2
30/11:00am 15.3 14.9 15.1 99 0.1 NE 11 15 6 8 - - 1.2
30/10:30am 15.2 15.1 15.0 99 0.1 ENE 9 15 5 8 - - 1.2
30/10:00am 14.8 14.2 14.6 99 0.1 ENE 11 17 6 9 - - 1.2
30/09:30am 14.7 14.1 14.5 99 0.1 ENE 11 20 6 11 - - 1.2
30/09:00am 14.6 13.9 14.4 99 0.1 NE 11 17 6 9 - - 1.4
30/08:30am 14.2 13.4 14.0 99 0.1 ENE 11 15 6 8 - - 1.4
30/08:00am 14.1 12.9 13.9 99 0.1 ENE 13 20 7 11 - - 1.4
30/07:30am 13.9 13.0 13.7 99 0.1 ENE 11 15 6 8 - - 1.4
30/07:00am 13.8 12.5 13.6 99 0.1 ENE 13 17 7 9 - - 1.4
30/06:30am 13.7 12.7 13.5 99 0.1 ENE 11 17 6 9 - - 1.4
30/06:00am 13.7 12.7 13.5 99 0.1 ENE 11 17 6 9 - - 1.4
30/05:30am 13.6 12.2 13.4 99 0.1 ENE 13 20 7 11 - - 1.4
30/05:00am 13.7 12.3 13.5 99 0.1 ENE 13 17 7 9 - - 1.4
30/04:30am 13.7 12.3 13.5 99 0.1 ENE 13 17 7 9 - - 1.4
30/04:00am 13.8 12.5 13.6 99 0.1 ENE 13 15 7 8 - - 1.4
30/03:30am 13.8 13.2 13.6 99 0.1 E 9 13 5 7 - - 1.4
30/03:00am 13.9 13.7 13.7 99 0.1 ENE 7 9 4 5 - - 1.4
30/02:30am 13.7 13.5 13.5 99 0.1 ENE 7 9 4 5 - - 1.4
30/02:00am 13.8 13.8 13.6 99 0.1 E 6 7 3 4 - - 1.4
30/01:30am 13.7 13.1 13.5 99 0.1 SSE 9 13 5 7 - - 1.4
30/01:00am 13.9 13.4 13.7 99 0.1 S 9 13 5 7 - - 1.4
30/12:30am 13.9 13.7 13.7 99 0.1 S 7 9 4 5 - - 1.4
30/12:00am 14.0 13.9 13.8 99 0.1 SSE 7 11 4 6 - - 1.4
 
Date/Time
WST
Temp
°C
App
Temp
°C
Dew
Point
Rel
Hum
%
Delta-T
°C
Wind Press
QNH
hPa
Press
MSL
hPa
Rain
since 9 am
mm
Dir
 
Spd
km/h
Gust
km/h
Spd
kts
Gust
kts
29/11:30pm 14.4 13.7 14.2 99 0.1 SSW 11 20 6 11 - - 1.4
29/11:00pm 14.9 15.3 14.7 99 0.1 N 6 9 3 5 - - 1.2
29/10:30pm 15.0 15.4 14.7 98 0.2 NNE 6 7 3 4 - - 0.8
29/10:00pm 15.2 15.7 14.9 98 0.2 N 6 7 3 4 - - 0.8
29/09:30pm 15.3 15.6 15.0 98 0.2 NNW 7 13 4 7 - - 0.8
29/09:00pm 15.3 15.2 15.0 98 0.2 NNW 9 13 5 7 - - 0.8
29/08:30pm 15.4 15.7 15.1 98 0.2 NNW 7 13 4 7 - - 0.8
29/08:00pm 15.2 14.7 14.9 98 0.2 NNW 11 15 6 8 - - 0.8
29/07:30pm 14.8 14.5 14.3 97 0.3 NW 9 11 5 6 - - 0.8
29/07:00pm 15.1 14.9 14.6 97 0.3 NW 9 17 5 9 - - 0.8
29/06:30pm 15.0 14.7 14.4 96 0.3 NNW 9 15 5 8 - - 0.8
29/06:00pm 15.2 14.2 14.6 96 0.3 NW 13 22 7 12 - - 0.8
29/05:30pm 15.1 14.8 14.3 95 0.5 NW 9 15 5 8 - - 0.8
29/05:00pm 15.3 14.7 14.5 95 0.5 NW 11 20 6 11 - - 0.8
29/04:30pm 15.8 15.7 15.0 95 0.5 WNW 9 15 5 8 - - 0.4
29/04:00pm 16.0 16.0 15.2 95 0.5 NW 9 13 5 7 - - 0.4
29/03:30pm 15.7 15.2 14.9 95 0.5 NNW 11 17 6 9 - - 0.4
29/03:00pm 15.9 15.5 15.3 96 0.4 NW 11 20 6 11 - - 0.4
29/02:30pm 15.8 15.8 15.3 97 0.3 NW 9 17 5 9 - - 0.4
29/02:00pm 15.7 15.7 15.2 97 0.3 NW 9 17 5 9 - - 0.4
29/01:30pm 15.6 14.9 15.3 98 0.2 NW 13 20 7 11 - - 0.4
29/01:00pm 15.5 14.7 15.2 98 0.2 WNW 13 20 7 11 - - 0.4
29/12:30pm 15.4 14.6 15.1 98 0.2 NW 13 17 7 9 - - 0.4
29/12:00pm 15.0 14.5 14.8 99 0.1 NW 11 17 6 9 - - 0.4
29/11:30am 15.4 15.0 15.2 99 0.1 NW 11 24 6 13 - - 0.4
29/11:00am 15.1 14.2 14.9 99 0.1 NNW 13 20 7 11 - - 0.4
29/10:30am 14.9 14.3 14.7 99 0.1 NNW 11 20 6 11 - - 0.4
29/10:00am 14.6 13.9 14.4 99 0.1 NNW 11 17 6 9 - - 0.4
29/09:30am 13.8 13.2 13.6 99 0.1 NNW 9 15 5 8 - - 0.4
29/09:00am 13.4 12.3 13.2 99 0.1 NNW 11 22 6 12 - - 8.4
29/08:30am 13.4 12.7 13.2 99 0.1 NNW 9 17 5 9 - - 8.2
29/08:00am 13.1 12.3 12.9 99 0.1 NNW 9 15 5 8 - - 7.8
29/07:30am 12.8 11.5 12.6 99 0.1 NNW 11 17 6 9 - - 7.0
29/07:00am 12.4 11.0 12.2 99 0.1 NNW 11 24 6 13 - - 6.6
29/06:30am 11.9 10.3 11.7 99 0.1 N 11 15 6 8 - - 6.2
29/06:00am 12.2 10.4 12.0 99 0.1 NNW 13 22 7 12 - - 5.8
29/05:30am 11.7 10.1 11.5 99 0.1 NNW 11 15 6 8 - - 5.4
29/05:00am 11.2 10.2 10.9 98 0.2 N 7 13 4 7 - - 5.4
29/04:30am 11.2 9.8 10.9 98 0.2 NNE 9 13 5 7 - - 5.4
29/04:00am 11.3 9.9 11.0 98 0.2 N 9 13 5 7 - - 5.4
29/03:30am 10.7 9.1 10.2 97 0.3 N 9 11 5 6 - - 5.0
29/03:00am 11.1 10.0 10.6 97 0.3 N 7 13 4 7 - - 5.0
29/02:30am 11.2 9.7 10.7 97 0.3 NW 9 13 5 7 - - 5.0
29/02:00am 10.4 9.1 9.9 97 0.3 WNW 7 11 4 6 - - 5.0
29/01:30am 9.5 8.9 9.0 97 0.3 WSW 2 7 1 4 - - 5.0
29/01:00am 9.2 7.7 8.6 96 0.3 ENE 6 7 3 4 - - 5.0
29/12:30am 9.4 7.8 8.8 96 0.3 E 7 9 4 5 - - 5.0
29/12:00am 9.7 9.1 9.1 96 0.3 ENE 2 7 1 4 - - 5.0
 
Date/Time
WST
Temp
°C
App
Temp
°C
Dew
Point
Rel
Hum
%
Delta-T
°C
Wind Press
QNH
hPa
Press
MSL
hPa
Rain
since 9 am
mm
Dir
 
Spd
km/h
Gust
km/h
Spd
kts
Gust
kts
28/11:30pm 10.1 8.7 9.5 96 0.3 NE 7 7 4 4 - - 5.0
28/11:00pm 9.9 8.4 9.3 96 0.3 NNE 7 9 4 5 - - 5.0
28/10:30pm 9.8 8.3 9.0 95 0.4 ENE 7 11 4 6 - - 5.0
28/10:00pm 10.2 8.4 9.4 95 0.4 E 9 13 5 7 - - 5.0

Other Formats:

Comma delimited format used in spreadsheet applications
http://www.bom.gov.au/fwo/IDW60801/IDW60801.95610.axf

JavaScript Object Notation format (JSON) in row-major order
http://www.bom.gov.au/fwo/IDW60801/IDW60801.95610.json